Estación Meteorológica Peña el Pijo (Robertgarden) [ 06/14/24 09:05:38 CEST ]

Fecha Hora Presion(HPa) Temp (°C) Humedad % Rocio (°C) Viento ( m/s) Direccion Lluvia 1Hora(mm) Lluvia 24H(mm) LLuvia Total(mm)
2012-Jun-22 01:01:12 1014.200 16.9 57 8.3         167.83
2012-Jun-22 02:01:11 1014.100 15.6 63 8.6         167.83
2012-Jun-22 03:10:05 1013.800 14.5 67 8.4         167.83
2012-Jun-22 04:01:48 1013.800 13.4 69 7.8         167.83
2012-Jun-22 05:03:19 1013.700 12.6 72 7.7         167.83
2012-Jun-22 06:01:12 1013.800 11.8 75 7.5         167.83
2012-Jun-22 07:01:13 1014.000 11.4 77 7.5         167.83
2012-Jun-22 08:01:17 1014.300 13.8 76 9.6         167.83
2012-Jun-22 09:01:18 1014.300 21.0 57 12.2         167.83
2012-Jun-22 10:01:16 1014.500 26.4 40 11.8         167.83
2012-Jun-22 11:01:18 1014.100 29.8 32 11.3         167.83
2012-Jun-22 12:01:18 1014.100 32.6 27 11.0         167.83
2012-Jun-22 13:01:13 1014.100 34.8 23 10.4         167.83
2012-Jun-22 14:01:12 1013.700 35.2 21 9.5         167.83
2012-Jun-22 15:01:14 1013.400 36.2 18 7.8 1.6 NE     167.83
2012-Jun-22 16:01:12 1012.900 37.8 17 8.0         167.83
2012-Jun-22 17:01:14 1012.600 34.3 24 10.6 0.4 NE     167.83
2012-Jun-22 18:01:13 1012.800 31.9 30 12.2         167.83
2012-Jun-22 19:01:13 1012.800 32.2 29 11.9         167.83
2012-Jun-22 20:01:17 1013.000 28.9 36 12.2         167.83
2012-Jun-22 21:01:13 1013.300 26.4 41 12.1         167.83
2012-Jun-22 22:01:14 1014.400 24.3 46 11.9         167.83
2012-Jun-22 23:01:16 1015.300 22.4 53 12.3         167.83

Temperatura Máxima:37°    Temperatura Mínima:11°
Presión Máxima:1015.300 Hpa    Presión Mínima:1012.600 Hpa


Volver